Time;durP1;ratioP1;P1;durP2;ratioP2;P2;SDS_P1;SDS_P2;PMS_P1;PMS_P2;Temp;Humidity;BMP_temperature;BMP_pressure;BME280_temperature;BME280_humidity;BME280_pressure;Samples;Min_cycle;Max_cycle;Signal;HPM_P1;HPM_P2
2022/05/13 00:00:07;;;;;;;3.65;1.52;;;10.40;99.90;;;;;;4970957;28;20023;-53
2022/05/13 00:02:33;;;;;;;5.35;2.22;;;10.30;99.90;;;;;;4970285;28;20121;-49
2022/05/13 00:04:58;;;;;;;5.30;1.90;;;10.30;99.90;;;;;;4971494;28;20507;-51
2022/05/13 00:07:24;;;;;;;3.78;2.13;;;10.30;99.90;;;;;;4971160;28;20035;-50
2022/05/13 00:10:05;;;;;;;4.35;1.80;;;10.20;99.90;;;;;;4971089;28;20110;-49
2022/05/13 00:12:33;;;;;;;4.32;1.92;;;10.20;99.90;;;;;;4970951;28;20434;-48
2022/05/13 00:15:02;;;;;;;6.25;1.83;;;10.20;99.90;;;;;;4971190;28;20514;-49
2022/05/13 00:17:29;;;;;;;5.18;2.05;;;10.10;99.90;;;;;;4954192;28;20049;-49
2022/05/13 00:19:55;;;;;;;6.75;2.58;;;10.10;99.90;;;;;;4952408;28;20042;-51
2022/05/13 00:22:21;;;;;;;6.43;1.73;;;10.00;99.90;;;;;;4970453;28;20553;-51
2022/05/13 00:24:47;;;;;;;6.82;1.85;;;10.00;99.90;;;;;;4969960;28;20034;-50
2022/05/13 00:27:13;;;;;;;5.32;2.00;;;9.90;99.90;;;;;;4970549;28;20114;-48
2022/05/13 00:29:38;;;;;;;3.63;1.80;;;9.90;99.90;;;;;;4970656;28;20034;-48
2022/05/13 00:32:04;;;;;;;4.20;2.17;;;9.80;99.90;;;;;;4970330;28;20022;-49
2022/05/13 00:34:31;;;;;;;7.13;2.45;;;9.80;99.90;;;;;;4970675;28;20503;-48
2022/05/13 00:36:56;;;;;;;4.28;1.92;;;9.80;99.90;;;;;;4970601;28;20089;-49
2022/05/13 00:39:22;;;;;;;4.18;2.15;;;9.70;99.90;;;;;;4970541;28;20046;-51
2022/05/13 00:41:48;;;;;;;4.22;1.92;;;9.70;99.90;;;;;;4970132;28;20134;-49
2022/05/13 00:44:15;;;;;;;4.18;2.08;;;9.60;99.90;;;;;;4970323;28;20499;-51
2022/05/13 00:46:44;;;;;;;3.53;2.10;;;9.60;99.90;;;;;;4970466;28;20025;-50
2022/05/13 00:49:13;;;;;;;4.55;1.90;;;9.60;99.90;;;;;;4968410;28;20031;-53
2022/05/13 00:51:42;;;;;;;6.18;2.80;;;9.50;99.90;;;;;;4970535;28;20082;-50
2022/05/13 00:54:11;;;;;;;3.92;2.35;;;9.50;99.90;;;;;;4970567;28;20023;-48
2022/05/13 00:56:37;;;;;;;7.15;2.33;;;9.50;99.90;;;;;;4970389;28;20027;-49
2022/05/13 00:59:06;;;;;;;7.63;3.28;;;9.40;99.90;;;;;;4968805;28;20090;-53
2022/05/13 01:01:33;;;;;;;6.00;2.80;;;9.40;99.90;;;;;;4968056;28;20035;-49
2022/05/13 01:04:02;;;;;;;6.15;2.92;;;9.30;99.90;;;;;;4968323;28;20093;-50
2022/05/13 01:06:29;;;;;;;4.85;2.47;;;9.30;99.90;;;;;;4970486;28;20066;-50
2022/05/13 01:08:56;;;;;;;5.78;2.33;;;9.20;99.90;;;;;;4970333;28;20628;-48
2022/05/13 01:11:25;;;;;;;4.93;2.55;;;9.20;99.90;;;;;;4970100;28;20077;-48
2022/05/13 01:13:57;;;;;;;5.20;2.65;;;9.20;99.90;;;;;;4970311;28;20073;-48
2022/05/13 01:16:23;;;;;;;8.07;2.88;;;9.10;99.90;;;;;;4973059;28;20031;-50
2022/05/13 01:18:48;;;;;;;8.93;2.40;;;9.10;99.90;;;;;;4973760;28;20035;-49
2022/05/13 01:21:21;;;;;;;3.88;2.20;;;9.10;99.90;;;;;;4973556;28;20403;-52
2022/05/13 01:23:47;;;;;;;4.28;2.42;;;9.00;99.90;;;;;;4973447;28;20695;-49
2022/05/13 01:26:14;;;;;;;3.67;2.70;;;9.00;99.90;;;;;;4973852;28;20074;-51
2022/05/13 01:28:47;;;;;;;3.55;2.15;;;8.90;99.90;;;;;;4974208;28;20442;-49
2022/05/13 01:31:22;;;;;;;5.25;2.08;;;8.90;99.90;;;;;;4956202;28;20110;-51
2022/05/13 01:33:48;;;;;;;7.97;2.33;;;8.80;99.90;;;;;;4973749;28;20037;-51
2022/05/13 01:36:15;;;;;;;7.80;2.38;;;8.80;99.90;;;;;;4973618;28;20039;-49
2022/05/13 01:38:42;;;;;;;3.88;2.25;;;8.80;99.90;;;;;;4973545;28;20027;-48
2022/05/13 01:41:10;;;;;;;4.07;2.08;;;8.70;99.90;;;;;;4973655;28;20130;-51
2022/05/13 01:43:36;;;;;;;4.13;2.70;;;8.70;99.90;;;;;;4955814;28;20026;-51
2022/05/13 01:46:02;;;;;;;5.32;2.40;;;8.70;99.90;;;;;;4973508;28;20027;-49
2022/05/13 01:48:28;;;;;;;6.20;2.20;;;8.60;99.90;;;;;;4973349;28;20046;-49
2022/05/13 01:50:54;;;;;;;4.95;2.17;;;8.60;99.90;;;;;;4973238;28;20031;-49
2022/05/13 01:53:19;;;;;;;4.15;2.65;;;8.50;99.90;;;;;;4973250;28;20023;-48
2022/05/13 01:55:45;;;;;;;4.05;2.40;;;8.50;99.90;;;;;;4973349;28;20027;-50
2022/05/13 01:58:16;;;;;;;6.15;2.40;;;8.50;99.90;;;;;;4973259;28;20115;-49
2022/05/13 02:00:44;;;;;;;3.95;2.58;;;8.50;99.90;;;;;;4973409;28;20030;-50
2022/05/13 02:05:56;;;;;;;2.88;2.03;;;8.50;99.90;;;;;;4973406;28;20101;-48
2022/05/13 02:08:21;;;;;;;3.53;2.28;;;8.50;99.90;;;;;;4973316;28;20029;-49
2022/05/13 02:10:47;;;;;;;7.70;2.53;;;8.50;99.90;;;;;;4973414;28;20390;-48
2022/05/13 02:13:14;;;;;;;5.85;2.28;;;8.40;99.90;;;;;;4972789;28;20495;-50
2022/05/13 02:15:39;;;;;;;5.30;2.28;;;8.40;99.90;;;;;;4972951;28;20034;-49
2022/05/13 02:18:06;;;;;;;3.95;2.00;;;8.40;99.90;;;;;;4973151;28;20940;-48
2022/05/13 02:20:32;;;;;;;3.85;2.13;;;8.40;99.90;;;;;;4972659;28;20031;-51
2022/05/13 02:22:58;;;;;;;6.18;2.53;;;8.40;99.90;;;;;;4954922;28;20487;-47
2022/05/13 02:25:24;;;;;;;4.78;3.08;;;8.40;99.90;;;;;;4972031;28;20019;-49
2022/05/13 02:27:49;;;;;;;7.45;2.60;;;8.40;99.90;;;;;;4972542;28;20434;-49
2022/05/13 02:30:15;;;;;;;4.60;2.38;;;8.40;99.90;;;;;;4972451;28;20018;-48
2022/05/13 02:32:41;;;;;;;5.82;2.38;;;8.40;99.90;;;;;;4972300;28;20106;-48
2022/05/13 02:35:07;;;;;;;5.55;2.30;;;8.40;99.90;;;;;;4972562;28;20055;-48
2022/05/13 02:37:33;;;;;;;5.65;2.85;;;8.40;99.90;;;;;;4972538;28;20042;-49
2022/05/13 02:39:58;;;;;;;7.68;3.15;;;8.40;99.90;;;;;;4972632;28;20031;-49
2022/05/13 02:42:24;;;;;;;3.40;2.40;;;8.40;99.90;;;;;;4963905;28;20065;-51
2022/05/13 02:44:50;;;;;;;5.35;2.85;;;8.40;99.90;;;;;;4960924;28;20415;-49
2022/05/13 02:47:16;;;;;;;4.60;2.95;;;8.40;99.90;;;;;;4955229;28;20027;-51
2022/05/13 02:49:41;;;;;;;3.45;2.33;;;8.40;99.90;;;;;;4972733;28;20027;-48
2022/05/13 02:52:09;;;;;;;5.80;2.78;;;8.40;99.90;;;;;;4972265;28;20023;-48
2022/05/13 02:54:35;;;;;;;5.47;2.63;;;8.30;99.90;;;;;;4972136;28;20069;-50
2022/05/13 02:57:00;;;;;;;4.50;2.90;;;8.30;99.90;;;;;;4972313;28;20058;-50
2022/05/13 02:59:26;;;;;;;3.97;2.75;;;8.40;99.90;;;;;;4972112;28;20069;-48
2022/05/13 03:01:54;;;;;;;6.88;2.80;;;8.30;99.90;;;;;;4971942;28;20031;-49
2022/05/13 03:04:20;;;;;;;5.03;2.90;;;8.30;99.90;;;;;;4954473;28;20062;-48
2022/05/13 03:06:46;;;;;;;7.15;3.35;;;8.30;99.90;;;;;;4971857;28;20022;-49
2022/05/13 03:09:11;;;;;;;5.43;2.72;;;8.40;99.90;;;;;;4972000;28;20033;-50
2022/05/13 03:11:37;;;;;;;9.40;2.88;;;8.40;99.90;;;;;;4954310;28;20027;-48
2022/05/13 03:14:03;;;;;;;7.13;3.03;;;8.40;99.90;;;;;;4971736;28;20476;-50
2022/05/13 03:16:30;;;;;;;5.43;3.00;;;8.50;99.90;;;;;;4971985;28;20027;-49
2022/05/13 03:18:58;;;;;;;3.58;2.95;;;8.50;99.90;;;;;;4971175;28;20030;-51
2022/05/13 03:21:25;;;;;;;6.88;3.05;;;8.50;99.90;;;;;;4971384;28;20375;-49
2022/05/13 03:23:51;;;;;;;7.53;2.50;;;8.50;99.90;;;;;;4971237;28;20109;-48
2022/05/13 03:26:19;;;;;;;6.32;2.95;;;8.60;99.90;;;;;;4954173;28;20033;-50
2022/05/13 03:28:45;;;;;;;7.28;2.90;;;8.60;99.90;;;;;;4954302;28;20039;-50
2022/05/13 03:31:12;;;;;;;6.47;3.20;;;8.60;99.90;;;;;;4971426;28;20065;-49
2022/05/13 03:33:38;;;;;;;5.63;3.05;;;8.70;99.90;;;;;;4971311;28;20072;-49
2022/05/13 03:36:04;;;;;;;4.95;3.30;;;8.70;99.90;;;;;;4971472;28;20023;-51
2022/05/13 03:38:29;;;;;;;6.07;3.58;;;8.80;99.90;;;;;;4970624;28;20117;-48
2022/05/13 03:40:55;;;;;;;4.05;2.88;;;8.80;99.90;;;;;;4971157;28;20030;-50
2022/05/13 03:43:20;;;;;;;6.05;3.03;;;8.80;99.90;;;;;;4970839;28;20089;-49
2022/05/13 03:45:46;;;;;;;3.53;2.60;;;8.90;99.90;;;;;;4971381;28;20025;-50
2022/05/13 03:48:11;;;;;;;11.43;3.45;;;8.90;99.90;;;;;;4971423;28;20513;-51
2022/05/13 03:50:39;;;;;;;6.80;3.30;;;8.90;99.90;;;;;;4971190;28;20031;-47
2022/05/13 03:53:05;;;;;;;6.90;3.63;;;9.00;99.90;;;;;;4970559;28;20085;-47
2022/05/13 03:55:32;;;;;;;5.82;3.63;;;9.00;99.90;;;;;;4971149;28;20046;-48
2022/05/13 03:57:57;;;;;;;3.92;3.55;;;9.10;99.90;;;;;;4971280;28;20027;-47
2022/05/13 04:00:24;;;;;;;6.95;3.63;;;9.10;99.90;;;;;;4971165;28;20038;-47
2022/05/13 04:02:50;;;;;;;10.27;3.75;;;9.20;99.90;;;;;;4970306;28;20073;-49
2022/05/13 04:10:45;;;;;;;8.50;3.47;;;9.40;99.90;;;;;;4971257;28;20164;-51
2022/05/13 04:16:04;;;;;;;7.28;3.60;;;9.50;99.90;;;;;;4970824;28;20161;-48
2022/05/13 04:18:44;;;;;;;11.00;4.05;;;9.50;99.90;;;;;;4970513;28;20039;-50
2022/05/13 04:21:19;;;;;;;5.68;3.35;;;9.60;99.90;;;;;;4970372;28;20081;-51
2022/05/13 04:23:47;;;;;;;8.93;4.47;;;9.60;99.90;;;;;;4952759;28;20038;-48
2022/05/13 04:26:13;;;;;;;5.80;3.45;;;9.60;99.90;;;;;;4970082;28;20047;-50
2022/05/13 04:28:45;;;;;;;6.30;3.90;;;9.70;99.90;;;;;;4970384;28;20085;-48
2022/05/13 04:31:11;;;;;;;9.32;3.90;;;9.70;99.90;;;;;;4970123;28;20406;-48
2022/05/13 04:33:39;;;;;;;6.78;3.78;;;9.80;99.90;;;;;;4970250;28;20031;-50
2022/05/13 04:36:05;;;;;;;6.60;3.67;;;9.80;99.90;;;;;;4970363;28;20027;-48
2022/05/13 04:38:31;;;;;;;7.55;4.05;;;9.90;99.90;;;;;;4952980;28;20035;-48
2022/05/13 04:42:49;;;;;;;8.52;4.00;;;9.90;99.90;;;;;;4970673;28;20031;-48
2022/05/13 04:43:42;;;;;;;5.80;3.80;;;9.90;99.90;;;;;;4970463;28;20090;-48
2022/05/13 04:46:08;;;;;;;9.18;3.88;;;10.00;99.90;;;;;;4970907;28;20030;-48
2022/05/13 04:48:33;;;;;;;5.35;3.72;;;10.00;99.90;;;;;;4970514;28;20034;-49
2022/05/13 04:50:59;;;;;;;4.65;3.17;;;10.00;99.90;;;;;;4973075;28;20026;-48
2022/05/13 04:53:29;;;;;;;4.90;3.15;;;10.10;99.90;;;;;;4974133;28;20023;-50
2022/05/13 04:55:56;;;;;;;7.03;2.75;;;10.10;99.90;;;;;;4974762;28;20653;-49
2022/05/13 04:58:22;;;;;;;9.75;4.13;;;10.10;99.90;;;;;;4974566;28;20023;-52
2022/05/13 05:00:50;;;;;;;7.90;3.83;;;10.10;99.90;;;;;;4974401;28;20022;-48
2022/05/13 05:03:17;;;;;;;7.57;3.42;;;10.20;99.90;;;;;;4973939;28;20618;-49
2022/05/13 05:05:43;;;;;;;6.78;3.60;;;10.20;99.90;;;;;;4974401;28;20037;-49
2022/05/13 05:08:10;;;;;;;6.82;3.50;;;10.20;99.90;;;;;;4974310;28;20050;-49
2022/05/13 05:10:36;;;;;;;7.22;3.80;;;10.20;99.90;;;;;;4974225;28;20514;-46
2022/05/13 05:13:01;;;;;;;7.93;2.83;;;10.30;99.90;;;;;;4973827;28;20126;-48
2022/05/13 05:15:27;;;;;;;6.32;3.75;;;10.30;99.90;;;;;;4973685;28;20030;-47
2022/05/13 05:17:53;;;;;;;4.63;3.25;;;10.30;99.90;;;;;;4956456;28;20031;-50
2022/05/13 05:20:20;;;;;;;5.78;3.92;;;10.30;99.90;;;;;;4973429;28;20073;-53
2022/05/13 05:22:47;;;;;;;7.25;3.60;;;10.40;99.90;;;;;;4973344;28;20030;-50
2022/05/13 05:25:15;;;;;;;6.13;3.47;;;10.40;99.90;;;;;;4973795;28;20039;-49
2022/05/13 05:27:41;;;;;;;4.82;3.17;;;10.40;99.90;;;;;;4974593;28;20023;-48
2022/05/13 05:30:08;;;;;;;6.10;2.78;;;10.40;99.90;;;;;;4974156;28;20427;-48
2022/05/13 05:32:35;;;;;;;7.57;4.55;;;10.40;99.90;;;;;;4973985;28;20110;-49
2022/05/13 05:35:01;;;;;;;7.93;3.75;;;10.40;99.90;;;;;;4974123;28;20531;-50
2022/05/13 05:37:27;;;;;;;5.63;3.35;;;10.40;99.90;;;;;;4973997;28;20082;-48
2022/05/13 05:39:52;;;;;;;6.80;3.30;;;10.50;99.90;;;;;;4973908;28;20146;-49
2022/05/13 05:42:18;;;;;;;6.18;3.47;;;10.50;99.90;;;;;;4973719;28;20097;-50
2022/05/13 05:44:43;;;;;;;9.88;3.47;;;10.50;99.90;;;;;;4973097;28;20039;-48
2022/05/13 05:47:09;;;;;;;5.50;3.28;;;10.50;99.90;;;;;;4955953;28;20031;-49
2022/05/13 05:49:34;;;;;;;7.25;2.95;;;10.50;99.90;;;;;;4973163;28;20507;-48
2022/05/13 05:52:00;;;;;;;5.25;3.15;;;10.50;99.90;;;;;;4972928;28;20431;-50
2022/05/13 05:57:16;;;;;;;6.25;3.03;;;10.60;99.90;;;;;;4973465;28;20600;-48
2022/05/13 05:59:46;;;;;;;7.07;3.17;;;10.70;99.90;;;;;;4973215;28;20027;-48
2022/05/13 06:02:12;;;;;;;4.13;2.88;;;10.70;99.90;;;;;;4972367;28;20031;-48
2022/05/13 06:04:39;;;;;;;4.57;2.97;;;10.70;99.90;;;;;;4973421;28;20035;-51
2022/05/13 06:07:14;;;;;;;4.25;2.92;;;10.70;99.90;;;;;;4956190;28;20025;-49
2022/05/13 06:09:41;;;;;;;4.25;3.13;;;10.80;99.90;;;;;;4956103;28;20403;-48
2022/05/13 06:12:08;;;;;;;4.97;2.95;;;10.80;99.90;;;;;;4973230;28;20023;-48
2022/05/13 06:14:34;;;;;;;3.58;2.47;;;10.90;99.90;;;;;;4973332;28;20137;-50
2022/05/13 06:17:00;;;;;;;5.78;3.15;;;10.90;99.90;;;;;;4973320;28;20164;-49
2022/05/13 06:19:26;;;;;;;6.10;3.20;;;10.90;99.90;;;;;;4972785;28;20023;-48
2022/05/13 06:21:52;;;;;;;4.38;2.72;;;11.00;99.90;;;;;;4972802;28;20027;-46
2022/05/13 06:24:18;;;;;;;6.30;4.10;;;11.00;99.90;;;;;;4955314;28;20545;-47
2022/05/13 06:26:49;;;;;;;4.63;2.67;;;11.10;99.90;;;;;;4955601;28;20388;-48
2022/05/13 06:29:16;;;;;;;5.38;3.13;;;11.10;99.90;;;;;;4973078;28;20058;-48
2022/05/13 06:31:41;;;;;;;8.90;3.53;;;11.20;99.90;;;;;;4972778;28;20023;-47
2022/05/13 06:34:08;;;;;;;3.83;2.78;;;11.20;99.90;;;;;;4972818;28;20030;-48
2022/05/13 06:36:34;;;;;;;6.30;3.47;;;11.30;99.90;;;;;;4972753;28;20130;-49
2022/05/13 06:39:00;;;;;;;7.80;3.15;;;11.30;99.90;;;;;;4973091;28;20114;-47
2022/05/13 06:41:26;;;;;;;5.30;3.30;;;11.30;99.90;;;;;;4972784;28;20035;-49
2022/05/13 06:43:52;;;;;;;5.95;3.40;;;11.30;99.90;;;;;;4972942;28;20399;-48
2022/05/13 06:46:18;;;;;;;3.78;3.00;;;11.30;99.90;;;;;;4972831;28;20058;-49
2022/05/13 06:48:44;;;;;;;4.90;3.22;;;11.30;99.90;;;;;;4972742;28;20055;-48
2022/05/13 06:51:09;;;;;;;4.88;3.28;;;11.40;99.90;;;;;;4972509;28;20026;-50
2022/05/13 06:53:35;;;;;;;4.22;3.13;;;11.40;99.90;;;;;;4955164;28;20018;-50
2022/05/13 06:56:00;;;;;;;3.78;3.15;;;11.50;99.90;;;;;;4972649;28;20033;-51
2022/05/13 06:58:27;;;;;;;7.65;3.42;;;11.50;99.90;;;;;;4972528;28;20154;-52
2022/05/13 07:00:53;;;;;;;7.80;3.55;;;11.50;99.90;;;;;;4972499;28;20023;-52
2022/05/13 07:03:20;;;;;;;7.65;3.58;;;11.60;99.90;;;;;;4971688;28;20047;-49
2022/05/13 07:05:46;;;;;;;10.98;3.30;;;11.60;99.90;;;;;;4972377;28;20015;-48
2022/05/13 07:08:12;;;;;;;7.95;3.35;;;11.60;99.90;;;;;;4970791;28;20023;-51
2022/05/13 07:10:39;;;;;;;7.88;3.53;;;11.60;99.90;;;;;;4952870;28;20039;-50
2022/05/13 07:13:05;;;;;;;7.60;4.00;;;11.60;99.90;;;;;;4969425;28;20031;-51
2022/05/13 07:15:31;;;;;;;7.20;3.70;;;11.60;99.90;;;;;;4972236;28;20035;-50
2022/05/13 07:17:57;;;;;;;4.90;3.10;;;11.60;99.90;;;;;;4972129;28;20107;-47
2022/05/13 07:20:25;;;;;;;6.35;3.30;;;11.60;99.90;;;;;;4972072;28;20275;-48
2022/05/13 07:22:52;;;;;;;7.88;3.63;;;11.60;99.90;;;;;;4971987;28;20022;-48
2022/05/13 07:25:17;;;;;;;8.75;3.15;;;11.60;99.90;;;;;;4971777;28;20047;-48
2022/05/13 07:27:43;;;;;;;6.70;4.18;;;11.60;99.90;;;;;;4972024;28;20035;-48
2022/05/13 07:30:10;;;;;;;8.98;3.90;;;11.60;99.90;;;;;;4971734;28;20023;-48
2022/05/13 07:32:36;;;;;;;4.93;3.58;;;11.60;99.90;;;;;;4971795;28;20030;-51
2022/05/13 07:35:01;;;;;;;10.68;4.10;;;11.70;99.90;;;;;;4971863;28;20030;-49
2022/05/13 07:37:27;;;;;;;9.00;4.00;;;11.70;99.90;;;;;;4971953;28;20489;-50
2022/05/13 07:42:37;;;;;;;4.95;3.13;;;11.80;99.90;;;;;;4971482;28;20026;-48
2022/05/13 07:45:03;;;;;;;6.47;3.72;;;11.90;99.90;;;;;;4971675;28;20038;-47
2022/05/13 07:47:29;;;;;;;6.78;3.80;;;12.00;99.90;;;;;;4971641;28;20086;-50
2022/05/13 07:49:54;;;;;;;5.70;3.50;;;12.10;99.90;;;;;;4971634;28;20047;-50
2022/05/13 07:52:20;;;;;;;6.57;3.80;;;12.20;99.90;;;;;;4971305;28;20085;-51
2022/05/13 07:54:46;;;;;;;8.77;4.40;;;12.30;99.90;;;;;;4971595;28;20035;-48
2022/05/13 07:57:12;;;;;;;7.05;3.22;;;12.40;99.90;;;;;;4971541;28;20026;-51
2022/05/13 08:00:24;;;;;;;4.80;3.25;;;12.50;99.90;;;;;;4971703;28;20033;-48
2022/05/13 08:02:23;;;;;;;7.40;3.55;;;12.50;99.90;;;;;;4971092;28;20038;-48
2022/05/13 08:04:48;;;;;;;5.63;3.42;;;12.60;99.90;;;;;;4971361;28;20038;-48
2022/05/13 08:07:14;;;;;;;3.40;2.95;;;12.60;99.90;;;;;;4971546;28;20039;-48
2022/05/13 08:09:40;;;;;;;11.20;4.18;;;12.60;99.90;;;;;;4971314;28;20111;-49
2022/05/13 08:12:06;;;;;;;4.95;3.15;;;12.60;99.90;;;;;;4970910;28;20159;-51
2022/05/13 08:14:32;;;;;;;9.80;4.03;;;12.60;99.90;;;;;;4972034;28;20147;-49
2022/05/13 08:16:57;;;;;;;5.95;3.45;;;12.60;99.90;;;;;;4953982;28;20649;-48
2022/05/13 08:19:23;;;;;;;8.18;3.58;;;12.70;99.90;;;;;;4970945;28;20031;-48
2022/05/13 08:21:48;;;;;;;6.97;3.30;;;12.70;99.90;;;;;;4971258;28;20022;-51
2022/05/13 08:24:14;;;;;;;9.30;4.28;;;12.70;99.90;;;;;;4969976;28;20097;-48
2022/05/13 08:26:40;;;;;;;8.57;3.42;;;12.80;99.90;;;;;;4970958;28;20487;-48
2022/05/13 08:29:05;;;;;;;11.18;4.40;;;12.70;99.90;;;;;;4970937;28;20038;-47
2022/05/13 08:31:31;;;;;;;6.95;4.03;;;12.70;99.90;;;;;;4970648;28;20031;-49
2022/05/13 08:33:56;;;;;;;8.27;3.88;;;12.80;99.90;;;;;;4970964;28;20553;-51
2022/05/13 08:36:22;;;;;;;8.20;4.10;;;12.80;99.90;;;;;;4971130;28;20638;-49
2022/05/13 08:38:50;;;;;;;10.10;4.20;;;12.80;99.90;;;;;;4971119;28;20022;-52
2022/05/13 08:41:28;;;;;;;8.43;4.32;;;12.90;99.90;;;;;;4970594;28;20019;-49
2022/05/13 08:43:57;;;;;;;11.45;3.78;;;13.00;99.90;;;;;;4970909;28;20029;-48
2022/05/13 08:46:35;;;;;;;9.52;4.00;;;13.10;99.90;;;;;;4970845;28;20581;-49
2022/05/13 08:49:15;;;;;;;8.77;4.13;;;13.30;99.90;;;;;;4970776;28;20050;-51
2022/05/13 08:52:02;;;;;;;13.55;3.80;;;13.50;99.90;;;;;;4970558;28;20029;-50
2022/05/13 08:54:34;;;;;;;10.07;4.35;;;13.80;99.90;;;;;;4970746;28;20050;-50
2022/05/13 08:57:09;;;;;;;12.55;5.10;;;14.10;99.90;;;;;;4970972;28;20038;-48
2022/05/13 08:59:43;;;;;;;10.35;4.10;;;14.20;99.90;;;;;;4970861;28;20395;-47
2022/05/13 09:02:21;;;;;;;5.97;4.45;;;14.20;99.90;;;;;;4970745;28;20699;-47
2022/05/13 09:04:59;;;;;;;6.97;4.35;;;14.20;99.90;;;;;;4970873;28;20035;-52
2022/05/13 09:07:25;;;;;;;9.73;3.80;;;14.20;99.90;;;;;;4971047;28;20126;-49
2022/05/13 09:09:55;;;;;;;10.13;3.95;;;14.20;99.90;;;;;;4970700;28;20035;-47
2022/05/13 09:12:38;;;;;;;9.55;5.22;;;14.40;99.90;;;;;;4970558;28;20023;-51
2022/05/13 09:15:44;;;;;;;7.30;3.97;;;14.50;99.90;;;;;;4971061;28;20553;-51
2022/05/13 09:18:56;;;;;;;8.57;4.18;;;14.60;99.90;;;;;;4970936;28;20038;-50
2022/05/13 09:21:21;;;;;;;10.40;3.63;;;14.90;99.90;;;;;;4947997;28;20050;-48
2022/05/13 09:23:47;;;;;;;7.82;4.13;;;15.00;99.90;;;;;;4970429;28;20023;-50
2022/05/13 09:26:21;;;;;;;14.07;4.57;;;15.10;99.90;;;;;;4970489;28;20066;-49
2022/05/13 09:29:10;;;;;;;11.70;4.55;;;15.20;99.90;;;;;;4970602;28;20030;-50
2022/05/13 09:31:44;;;;;;;11.07;4.85;;;15.30;99.90;;;;;;4970318;28;20027;-52
2022/05/13 09:34:16;;;;;;;10.40;5.05;;;15.30;99.90;;;;;;4970595;28;20537;-51
2022/05/13 09:36:42;;;;;;;7.93;4.45;;;15.40;99.90;;;;;;4972325;28;20034;-50
2022/05/13 09:39:21;;;;;;;11.50;4.78;;;15.50;99.90;;;;;;4974090;28;20073;-48
2022/05/13 09:41:48;;;;;;;10.63;4.20;;;15.60;99.90;;;;;;4973914;28;20092;-49
2022/05/13 09:44:23;;;;;;;12.32;4.40;;;15.70;99.90;;;;;;4973862;28;20027;-50
2022/05/13 09:47:10;;;;;;;8.20;3.58;;;15.70;99.90;;;;;;4973955;28;20027;-47
2022/05/13 09:49:42;;;;;;;10.45;4.55;;;15.70;99.90;;;;;;4974003;28;20019;-53
2022/05/13 09:52:14;;;;;;;9.25;4.38;;;15.60;99.90;;;;;;4973792;28;20027;-48
2022/05/13 09:54:43;;;;;;;9.43;4.30;;;15.60;99.90;;;;;;4973978;28;20030;-50
2022/05/13 09:57:14;;;;;;;9.23;4.40;;;15.80;99.90;;;;;;4956531;28;20055;-52
2022/05/13 09:59:53;;;;;;;12.45;4.10;;;16.00;99.90;;;;;;4973715;28;20030;-51
2022/05/13 10:02:24;;;;;;;10.82;4.97;;;16.20;99.90;;;;;;4973192;28;20027;-49
2022/05/13 10:05:11;;;;;;;10.40;4.40;;;16.10;99.90;;;;;;4973460;28;20391;-48
2022/05/13 10:07:53;;;;;;;10.23;4.65;;;16.00;99.90;;;;;;4956137;28;20088;-47
2022/05/13 10:16:15;;;;;;;10.90;4.30;;;15.30;99.90;;;;;;4973720;28;20038;-48
2022/05/13 10:18:57;;;;;;;9.02;4.18;;;15.30;99.90;;;;;;4973130;28;20042;-49
2022/05/13 10:21:56;;;;;;;10.63;4.75;;;15.60;99.90;;;;;;4956072;28;20031;-52
2022/05/13 10:24:34;;;;;;;9.23;3.95;;;15.90;99.90;;;;;;4959206;28;20043;-48
2022/05/13 10:27:02;;;;;;;9.38;4.68;;;16.00;99.90;;;;;;4972532;28;20023;-51
2022/05/13 10:29:45;;;;;;;6.90;4.10;;;16.30;99.90;;;;;;4973047;28;20015;-49
2022/05/13 10:32:24;;;;;;;8.63;3.33;;;16.10;99.90;;;;;;4973219;28;20487;-49
2022/05/13 10:34:54;;;;;;;8.73;3.83;;;15.90;99.90;;;;;;4973290;28;20498;-53
2022/05/13 10:37:35;;;;;;;8.63;4.68;;;15.70;99.90;;;;;;4973109;28;20031;-51
2022/05/13 10:40:10;;;;;;;10.82;4.20;;;15.40;99.90;;;;;;4973123;28;20070;-49
2022/05/13 10:42:40;;;;;;;7.53;3.97;;;15.00;99.90;;;;;;4972669;28;20023;-47
2022/05/13 10:45:08;;;;;;;7.28;3.80;;;14.60;99.90;;;;;;4972651;28;20533;-47
2022/05/13 10:47:41;;;;;;;8.05;4.05;;;14.50;99.90;;;;;;4972826;28;20034;-49
2022/05/13 10:50:21;;;;;;;3.97;3.58;;;14.40;99.90;;;;;;4972760;28;20502;-52
2022/05/13 10:53:14;;;;;;;6.80;3.20;;;14.30;99.90;;;;;;4972350;28;20634;-47
2022/05/13 10:56:19;;;;;;;8.38;4.10;;;14.40;99.90;;;;;;4972793;28;20089;-47
2022/05/13 10:59:15;;;;;;;8.73;3.47;;;14.70;99.90;;;;;;4932453;28;20046;-46
2022/05/13 11:01:56;;;;;;;7.63;3.20;;;14.90;99.90;;;;;;4972051;28;20037;-48
2022/05/13 11:04:42;;;;;;;9.65;3.38;;;14.70;99.90;;;;;;4972089;28;20081;-48
2022/05/13 11:07:33;;;;;;;6.13;3.45;;;14.50;99.90;;;;;;4972345;28;20033;-48
2022/05/13 11:10:17;;;;;;;6.95;3.47;;;14.40;99.90;;;;;;4972439;28;20027;-49
2022/05/13 11:13:01;;;;;;;6.65;3.90;;;14.10;99.90;;;;;;4972118;28;20042;-48
2022/05/13 11:15:26;;;;;;;6.13;4.13;;;14.00;99.90;;;;;;4973210;28;20577;-52
2022/05/13 11:18:13;;;;;;;7.22;2.97;;;13.90;99.90;;;;;;4973566;28;20110;-49
2022/05/13 11:20:49;;;;;;;;;;;14.00;99.90;;;;;;4974091;28;20090;-51
2022/05/13 11:23:22;;;;;;;6.32;3.40;;;14.00;99.90;;;;;;4973114;28;19910;-47
2022/05/13 11:26:05;;;;;;;9.65;3.85;;;14.00;99.90;;;;;;4972938;28;20038;-48
2022/05/13 11:28:49;;;;;;;5.18;3.45;;;14.00;99.90;;;;;;4971915;28;20423;-50
2022/05/13 11:31:41;;;;;;;4.10;2.95;;;14.10;99.90;;;;;;4971750;28;20023;-47
2022/05/13 11:34:29;;;;;;;6.72;3.00;;;14.20;99.90;;;;;;4971896;28;20026;-50
2022/05/13 11:37:02;;;;;;;6.60;3.60;;;14.20;99.90;;;;;;4971971;28;20027;-48
2022/05/13 11:39:40;;;;;;;4.00;2.65;;;14.30;99.90;;;;;;4972040;28;20031;-46
2022/05/13 11:42:29;;;;;;;7.30;3.75;;;14.40;99.90;;;;;;4971467;28;20026;-47
2022/05/13 11:45:12;;;;;;;4.68;2.88;;;14.50;99.90;;;;;;4971535;28;20046;-47
2022/05/13 11:47:59;;;;;;;4.70;2.80;;;14.60;99.90;;;;;;4971885;28;20030;-48
2022/05/13 11:50:31;;;;;;;6.35;2.10;;;14.80;99.90;;;;;;4972002;28;20015;-47
2022/05/13 11:52:58;;;;;;;5.70;2.42;;;14.90;99.90;;;;;;4971678;28;20014;-48
2022/05/13 11:55:29;;;;;;;3.17;2.50;;;15.00;99.90;;;;;;4971736;28;20499;-47
2022/05/13 11:57:55;;;;;;;5.68;2.78;;;14.90;99.90;;;;;;4971649;28;20053;-48
2022/05/13 12:00:23;;;;;;;8.40;3.08;;;14.80;99.90;;;;;;4971054;28;20491;-47
2022/05/13 12:02:50;;;;;;;3.75;3.10;;;14.80;99.90;;;;;;4971133;28;20030;-47
2022/05/13 12:05:16;;;;;;;6.47;3.10;;;15.10;99.90;;;;;;4971388;28;20035;-47
2022/05/13 12:07:54;;;;;;;5.07;2.80;;;15.20;99.90;;;;;;4970978;28;20507;-47
2022/05/13 12:10:56;;;;;;;4.88;3.20;;;15.20;99.90;;;;;;4971770;28;20394;-47
2022/05/13 12:13:41;;;;;;;7.30;3.70;;;15.20;99.90;;;;;;4971054;28;20037;-47
2022/05/13 12:16:45;;;;;;;5.40;2.47;;;15.10;99.90;;;;;;4971299;28;20442;-47
2022/05/13 12:19:43;;;;;;;8.63;4.10;;;15.00;99.90;;;;;;4971085;28;20014;-47
2022/05/13 12:22:19;;;;;;;7.20;3.17;;;14.90;99.90;;;;;;4940580;28;20035;-46
2022/05/13 12:25:05;;;;;;;5.55;3.13;;;14.80;99.90;;;;;;4970917;28;20034;-48
2022/05/13 12:27:38;;;;;;;5.55;3.70;;;14.80;99.90;;;;;;4971577;28;20019;-49
2022/05/13 12:30:29;;;;;;;6.13;3.63;;;14.80;99.90;;;;;;4971526;28;20050;-48
2022/05/13 12:32:55;;;;;;;5.50;3.50;;;14.80;99.90;;;;;;4970879;28;20026;-50
2022/05/13 12:38:22;;;;;;;5.95;3.40;;;14.70;99.90;;;;;;4971180;28;20046;-49
2022/05/13 12:41:16;;;;;;;3.92;3.08;;;14.60;99.90;;;;;;4970885;28;20034;-51
2022/05/13 12:43:51;;;;;;;7.03;3.15;;;14.70;99.90;;;;;;4970766;28;20098;-47
2022/05/13 12:46:39;;;;;;;4.90;3.10;;;14.80;99.90;;;;;;4970803;28;20023;-49
2022/05/13 12:49:12;;;;;;;6.05;2.58;;;15.00;99.90;;;;;;4970676;28;20045;-48
2022/05/13 12:51:44;;;;;;;5.82;2.70;;;15.00;99.90;;;;;;4953166;28;20581;-50
2022/05/13 12:54:11;;;;;;;6.03;2.65;;;15.00;99.90;;;;;;4970814;28;20193;-47
2022/05/13 12:56:42;;;;;;;6.53;2.83;;;15.00;99.90;;;;;;4953582;28;20097;-46
2022/05/13 12:59:23;;;;;;;6.53;2.65;;;14.80;99.90;;;;;;4971153;28;20038;-48
2022/05/13 13:01:53;;;;;;;3.30;2.28;;;14.70;99.90;;;;;;4953533;28;20038;-49
2022/05/13 13:04:23;;;;;;;10.90;3.28;;;14.70;99.90;;;;;;4970761;28;20031;-48
2022/05/13 13:06:50;;;;;;;5.80;2.42;;;14.70;99.90;;;;;;4971332;28;20027;-48
2022/05/13 13:09:18;;;;;;;3.17;2.20;;;14.70;99.90;;;;;;4971090;28;20030;-47
2022/05/13 13:12:01;;;;;;;4.28;2.28;;;14.70;99.90;;;;;;4972301;28;20030;-52
2022/05/13 13:14:58;;;;;;;3.88;2.13;;;14.80;99.90;;;;;;4974480;28;20058;-47
2022/05/13 13:17:57;;;;;;;4.80;1.83;;;14.80;99.90;;;;;;4974745;28;20031;-46
2022/05/13 13:20:29;;;;;;;5.25;2.53;;;14.80;99.90;;;;;;4974311;28;20046;-47
2022/05/13 13:23:04;;;;;;;4.97;2.00;;;14.80;99.90;;;;;;4974047;28;20458;-47
2022/05/13 13:25:32;;;;;;;3.67;2.00;;;14.80;99.90;;;;;;4974042;28;20027;-50
2022/05/13 13:28:07;;;;;;;6.43;1.92;;;14.80;99.90;;;;;;4974356;28;20023;-48
2022/05/13 13:30:33;;;;;;;4.03;2.33;;;14.80;99.90;;;;;;4974495;28;20106;-47
2022/05/13 13:33:00;;;;;;;7.65;2.45;;;14.80;99.90;;;;;;4973857;28;20122;-46